Detall de PIREP

Printer-friendly versionPDF version

[2010/12/16 21:24:00]
Flight IATA:CT2110
Pilot Number:026
Company ICAO:CAT
Aircraft Type:DC85/A
PAX:136
Departing Airport: LEVC
Destination Airport: LEST
Alternate Airport:LPPT
Online: VATSIM
Route:CENTA/N0380F230 A33 PRADO/N0430F350 UN733 FORNO
Flight Level:FL370
No Slew and time accel
No pause
Crash detect
Detect pilot in Cockpit between each 30 and 45 minutes
21:24 Zero fuel Weight: 178805 Lbs, Fuel Weight: 35595 Lbs
21:24 VATSIM:LEVC 162100Z 25006KT CAVOK 02/M05 Q1018 NOSIG
21:24 VATSIM:LEST 162100Z 06003KT CAVOK 02/M01 Q1020 NOSIG
21:25 VOICE CATALONIAN / LEVC HUB ROUTE CT2110
21:34 Parking Brakes off
21:41 Take-off
21:41 Take off Weight: 213319 Lbs
21:41 Wind: 263º @ 005 Knots Heading: 297º
21:41 POS N39º 29´ 46´´ W000º 29´ 56´´
21:41 Gear Up: 170 Knots
21:41 Flaps:2 at 170 Knots
21:42 Flaps:1 at 186 Knots
21:43 Flaps:0 at 202 Knots
21:56 Wind:260º@009 Knots Heading: 297º Ground Speed: 378 Knots Altitude 22877 ft
22:09 TOC
22:09 Fuel Weight: 27040 Lb
22:11 Wind:249º@006 Knots Heading: 296º Ground Speed: 429 Knots Altitude 37148 ft
22:18 TOD
22:18 Fuel Weight: 25368 Lb
22:26 Wind:234º@006 Knots Heading: 305º Ground Speed: 451 Knots Altitude 27316 ft
22:41 Wind:222º@000 Knots Heading: 302º Ground Speed: 269 Knots Altitude 7237 ft
22:47 Gear Down: 199 Knots
22:47 Flaps:1 at 203 Knots
22:48 Flaps:2 at 163 Knots
22:48 Flaps:3 at 159 Knots
22:49 Flaps:4 at 150 Knots
22:50 TouchDown:Rate -242 ft/min Speed: 131 Knots
22:50 VATSIM:LEST 162230Z 00000KT CAVOK M02/M02 Q1020 NOSIG
22:50 Land
22:50 Wind:222º@000 Knots
22:50 Heading: 346º
22:50 Flight Duration: 01:09
22:50 Landing Weight: 200068 Lbs
22:50 POS N42º 53´ 40´´ W008º 24´ 52´´
22:55 Parking brakes on
22:55 Block to Block Duration: 01:21
22:55 Final Fuel:20844 Lbls
22:55 Spent Fuel: 14750 Lbls
22:55 Flight Length: 418 NM
22:55 TOD Land Length: 182 NM

Exportar CSV

Powered by Drupal - Modified by Danger4k